Time;durP1;ratioP1;P1;durP2;ratioP2;P2;SDS_P1;SDS_P2;PMS_P1;PMS_P2;Temp;Humidity;BMP_temperature;BMP_pressure;BME280_temperature;BME280_humidity;BME280_pressure;Samples;Min_cycle;Max_cycle;Signal;HPM_P1;HPM_P2
2022/03/15 00:00:20;;;;;;;12.18;3.80;;;;;;;;;;5044055;28;20053;-58
2022/03/15 00:02:48;;;;;;;13.07;4.13;;;;;;;;;;5049763;28;20048;-58
2022/03/15 00:05:15;;;;;;;8.50;3.40;;;;;;;;;;5039390;28;20057;-54
2022/03/15 00:07:42;;;;;;;9.38;4.00;;;;;;;;;;5063771;28;20079;-55
2022/03/15 00:10:09;;;;;;;10.27;3.63;;;;;;;;;;5041977;28;20075;-50
2022/03/15 00:12:37;;;;;;;8.17;3.77;;;;;;;;;;5029836;28;20061;-49
2022/03/15 00:15:05;;;;;;;9.63;3.85;;;;;;;;;;5025950;28;20300;-51
2022/03/15 00:17:32;;;;;;;13.80;4.13;;;;;;;;;;5047194;28;20056;-52
2022/03/15 00:19:59;;;;;;;10.93;3.95;;;;;;;;;;5049270;28;20091;-57
2022/03/15 00:22:25;;;;;;;10.30;3.67;;;;;;;;;;5059633;28;20269;-52
2022/03/15 00:24:52;;;;;;;12.20;4.25;;;;;;;;;;5043275;28;20057;-57
2022/03/15 00:27:19;;;;;;;10.02;3.75;;;;;;;;;;5042708;28;20049;-54
2022/03/15 00:29:47;;;;;;;10.52;4.00;;;;;;;;;;5049585;28;20098;-52
2022/03/15 00:32:19;;;;;;;9.38;3.90;;;;;;;;;;5030871;28;20057;-50
2022/03/15 00:34:46;;;;;;;7.93;3.20;;;;;;;;;;5042975;28;20080;-51
2022/03/15 00:37:12;;;;;;;10.70;4.13;;;;;;;;;;5036885;28;20044;-59
2022/03/15 00:39:39;;;;;;;11.80;3.67;;;;;;;;;;5051437;28;20049;-54
2022/03/15 00:42:06;;;;;;;11.55;4.45;;;;;;;;;;5034441;28;20044;-60
2022/03/15 00:44:33;;;;;;;14.80;4.63;;;;;;;;;;5069325;28;20106;-59
2022/03/15 00:47:01;;;;;;;8.13;3.92;;;;;;;;;;5062767;28;20048;-63
2022/03/15 00:49:28;;;;;;;13.30;4.70;;;;;;;;;;5052441;28;20102;-62
2022/03/15 00:51:55;;;;;;;15.52;4.40;;;;;;;;;;5061204;28;20143;-53
2022/03/15 00:54:22;;;;;;;11.98;3.83;;;;;;;;;;5052342;28;20052;-56
2022/03/15 00:56:48;;;;;;;10.45;4.50;;;;;;;;;;5045861;28;20086;-59
2022/03/15 00:59:15;;;;;;;9.57;3.85;;;;;;;;;;5047620;28;20060;-55
2022/03/15 01:01:42;;;;;;;10.70;4.20;;;;;;;;;;5048419;28;20110;-59
2022/03/15 01:04:10;;;;;;;11.18;4.13;;;;;;;;;;5039403;28;20049;-57
2022/03/15 01:06:37;;;;;;;13.52;4.32;;;;;;;;;;5048486;28;20060;-56
2022/03/15 01:09:04;;;;;;;13.10;4.72;;;;;;;;;;5026559;28;20045;-59
2022/03/15 01:11:30;;;;;;;11.95;4.38;;;;;;;;;;5031712;28;20056;-57
2022/03/15 01:13:57;;;;;;;10.80;4.45;;;;;;;;;;5039615;28;20068;-61
2022/03/15 01:16:24;;;;;;;10.73;3.85;;;;;;;;;;5068723;28;20064;-63
2022/03/15 01:18:50;;;;;;;10.02;4.32;;;;;;;;;;5034814;28;20053;-57
2022/03/15 01:21:19;;;;;;;13.02;4.18;;;;;;;;;;5048609;28;20103;-56
2022/03/15 01:23:45;;;;;;;11.45;3.97;;;;;;;;;;5050530;28;20052;-62
2022/03/15 01:26:14;;;;;;;12.65;4.00;;;;;;;;;;5051241;28;20059;-54
2022/03/15 01:28:40;;;;;;;11.00;4.22;;;;;;;;;;5038834;28;20091;-54
2022/03/15 01:31:07;;;;;;;10.00;4.18;;;;;;;;;;5032111;28;20044;-52
2022/03/15 01:33:33;;;;;;;10.25;4.22;;;;;;;;;;5029387;28;20072;-57
2022/03/15 01:36:00;;;;;;;9.95;3.72;;;;;;;;;;5050170;28;20057;-54
2022/03/15 01:38:28;;;;;;;9.40;3.40;;;;;;;;;;5057796;28;20061;-51
2022/03/15 01:40:55;;;;;;;12.88;4.90;;;;;;;;;;5048114;28;20060;-59
2022/03/15 01:43:22;;;;;;;14.50;4.82;;;;;;;;;;5048338;28;20052;-56
2022/03/15 01:45:48;;;;;;;13.25;4.40;;;;;;;;;;5041494;28;20053;-55
2022/03/15 01:48:15;;;;;;;8.85;3.88;;;;;;;;;;5047611;28;20049;-59
2022/03/15 01:50:42;;;;;;;15.60;5.40;;;;;;;;;;5041838;28;20045;-56
2022/03/15 01:53:08;;;;;;;10.65;4.30;;;;;;;;;;5047752;28;20049;-54
2022/03/15 01:55:36;;;;;;;14.88;4.70;;;;;;;;;;5038567;28;20053;-57
2022/03/15 01:58:03;;;;;;;12.68;4.45;;;;;;;;;;5044639;28;20061;-53
2022/03/15 02:00:31;;;;;;;11.00;4.53;;;;;;;;;;5037730;28;20049;-53
2022/03/15 02:02:58;;;;;;;12.00;4.03;;;;;;;;;;5042670;28;20096;-56
2022/03/15 02:05:24;;;;;;;15.63;4.88;;;;;;;;;;5038671;28;20153;-52
2022/03/15 02:07:51;;;;;;;13.73;4.57;;;;;;;;;;5027953;28;20049;-50
2022/03/15 02:10:17;;;;;;;9.55;4.05;;;;;;;;;;5042375;28;20053;-61
2022/03/15 02:12:46;;;;;;;10.23;4.03;;;;;;;;;;5043587;28;20049;-53
2022/03/15 02:15:12;;;;;;;11.75;4.10;;;;;;;;;;5041107;28;20063;-51
2022/03/15 02:17:39;;;;;;;11.80;4.47;;;;;;;;;;5047194;28;20037;-55
2022/03/15 02:20:08;;;;;;;10.07;4.57;;;;;;;;;;5041107;28;20053;-54
2022/03/15 02:22:34;;;;;;;13.70;4.50;;;;;;;;;;5046623;28;20053;-55
2022/03/15 02:25:01;;;;;;;13.40;5.40;;;;;;;;;;5047553;28;20049;-52
2022/03/15 02:27:27;;;;;;;16.52;5.72;;;;;;;;;;5037347;28;20160;-59
2022/03/15 02:29:54;;;;;;;21.08;5.95;;;;;;;;;;5027322;28;20057;-54
2022/03/15 02:32:21;;;;;;;12.60;5.55;;;;;;;;;;5037698;28;20053;-55
2022/03/15 02:34:47;;;;;;;17.58;6.05;;;;;;;;;;5043756;28;20053;-60
2022/03/15 02:37:15;;;;;;;13.52;5.03;;;;;;;;;;5027529;28;20060;-56
2022/03/15 02:39:42;;;;;;;14.60;5.10;;;;;;;;;;5010904;28;20115;-61
2022/03/15 02:42:09;;;;;;;13.13;5.28;;;;;;;;;;5008708;28;20064;-57
2022/03/15 02:44:36;;;;;;;18.13;6.43;;;;;;;;;;5047074;28;20057;-59
2022/03/15 02:47:03;;;;;;;14.07;5.22;;;;;;;;;;5028031;28;20057;-58
2022/03/15 02:49:29;;;;;;;13.30;5.60;;;;;;;;;;4991160;28;20066;-62
2022/03/15 02:51:56;;;;;;;17.17;6.75;;;;;;;;;;4992771;28;20061;-62
2022/03/15 02:54:24;;;;;;;21.45;6.97;;;;;;;;;;5026381;28;20053;-62
2022/03/15 02:56:50;;;;;;;16.20;6.22;;;;;;;;;;5026070;28;20106;-60
2022/03/15 02:59:17;;;;;;;12.60;5.45;;;;;;;;;;5046623;28;20056;-57
2022/03/15 03:01:44;;;;;;;10.85;4.68;;;;;;;;;;5038681;28;20059;-54
2022/03/15 03:04:10;;;;;;;19.58;6.65;;;;;;;;;;5026768;28;20064;-54
2022/03/15 03:06:37;;;;;;;14.88;5.93;;;;;;;;;;5026505;28;20115;-58
2022/03/15 03:09:04;;;;;;;15.30;6.07;;;;;;;;;;5032824;28;20061;-56
2022/03/15 03:11:32;;;;;;;20.33;7.47;;;;;;;;;;5007052;28;20061;-53
2022/03/15 03:14:00;;;;;;;19.77;7.70;;;;;;;;;;5005105;28;20132;-55
2022/03/15 03:16:27;;;;;;;23.63;7.80;;;;;;;;;;5026684;28;20081;-56
2022/03/15 03:18:58;;;;;;;18.38;6.18;;;;;;;;;;5035670;28;20049;-59
2022/03/15 03:21:25;;;;;;;10.80;4.93;;;;;;;;;;5031501;28;20144;-55
2022/03/15 03:23:59;;;;;;;16.85;6.25;;;;;;;;;;5027315;28;20049;-53
2022/03/15 03:26:26;;;;;;;18.85;6.88;;;;;;;;;;5008063;28;20058;-50
2022/03/15 03:28:54;;;;;;;13.43;5.82;;;;;;;;;;5016786;28;20057;-55
2022/03/15 03:31:21;;;;;;;10.75;4.15;;;;;;;;;;5048693;28;20048;-52
2022/03/15 03:33:55;;;;;;;19.38;6.93;;;;;;;;;;5039431;28;20071;-59
2022/03/15 03:36:24;;;;;;;10.23;4.68;;;;;;;;;;5012701;28;20057;-60
2022/03/15 03:38:50;;;;;;;11.35;4.38;;;;;;;;;;5019223;28;20057;-57
2022/03/15 03:41:17;;;;;;;13.30;5.05;;;;;;;;;;5026413;28;20073;-47
2022/03/15 03:43:45;;;;;;;19.52;6.88;;;;;;;;;;5020726;28;20049;-52
2022/03/15 03:46:13;;;;;;;18.60;7.18;;;;;;;;;;5025553;28;20058;-49
2022/03/15 03:48:40;;;;;;;13.23;4.65;;;;;;;;;;5023185;28;20065;-51
2022/03/15 03:51:07;;;;;;;13.18;4.90;;;;;;;;;;5045976;28;20057;-50
2022/03/15 03:53:33;;;;;;;12.07;5.45;;;;;;;;;;5042683;28;20049;-51
2022/03/15 03:56:00;;;;;;;12.85;5.57;;;;;;;;;;5024584;28;20056;-52
2022/03/15 03:58:27;;;;;;;15.70;5.78;;;;;;;;;;5026504;28;20053;-57
2022/03/15 04:00:53;;;;;;;18.10;6.88;;;;;;;;;;5024820;28;20049;-55
2022/03/15 04:03:24;;;;;;;12.00;5.28;;;;;;;;;;5020001;28;20056;-54
2022/03/15 04:05:51;;;;;;;13.90;5.20;;;;;;;;;;5024535;28;20056;-55
2022/03/15 04:08:18;;;;;;;15.38;6.68;;;;;;;;;;5063036;28;20061;-59
2022/03/15 04:10:46;;;;;;;13.65;5.05;;;;;;;;;;5059803;28;20049;-49
2022/03/15 04:13:18;;;;;;;9.75;4.85;;;;;;;;;;5050607;28;20072;-57
2022/03/15 04:15:45;;;;;;;17.20;6.00;;;;;;;;;;5040785;28;20077;-56
2022/03/15 04:18:12;;;;;;;16.13;6.57;;;;;;;;;;5046106;28;20045;-60
2022/03/15 04:20:40;;;;;;;18.33;6.80;;;;;;;;;;5043428;28;20076;-54
2022/03/15 04:23:10;;;;;;;18.95;6.13;;;;;;;;;;5049714;28;20131;-54
2022/03/15 04:25:36;;;;;;;11.82;5.38;;;;;;;;;;5035742;28;20053;-62
2022/03/15 04:28:03;;;;;;;12.57;6.25;;;;;;;;;;5030227;28;20053;-61
2022/03/15 04:30:30;;;;;;;12.57;5.75;;;;;;;;;;5041863;28;20138;-62
2022/03/15 04:32:58;;;;;;;18.35;6.68;;;;;;;;;;5047426;28;20051;-59
2022/03/15 04:35:25;;;;;;;15.15;5.53;;;;;;;;;;5042257;28;20049;-59
2022/03/15 04:37:54;;;;;;;10.40;5.40;;;;;;;;;;5031897;28;20061;-59
2022/03/15 04:40:20;;;;;;;18.70;6.03;;;;;;;;;;5031268;28;20045;-55
2022/03/15 04:42:48;;;;;;;15.15;5.60;;;;;;;;;;5026786;28;22024;-51
2022/03/15 04:45:15;;;;;;;11.35;5.10;;;;;;;;;;5012079;28;20057;-52
2022/03/15 04:47:42;;;;;;;12.30;5.50;;;;;;;;;;5023498;28;20098;-52
2022/03/15 04:50:10;;;;;;;16.70;5.57;;;;;;;;;;5031611;28;20053;-55
2022/03/15 04:52:39;;;;;;;14.45;5.90;;;;;;;;;;5042619;28;20126;-54
2022/03/15 04:55:07;;;;;;;17.52;6.15;;;;;;;;;;5032104;28;20064;-54
2022/03/15 04:57:34;;;;;;;13.07;5.05;;;;;;;;;;5013773;28;20049;-54
2022/03/15 05:00:00;;;;;;;9.95;4.50;;;;;;;;;;5029623;28;20076;-52
2022/03/15 05:02:28;;;;;;;11.95;5.22;;;;;;;;;;5026918;28;20121;-51
2022/03/15 05:04:54;;;;;;;11.38;5.28;;;;;;;;;;5034039;28;20053;-51
2022/03/15 05:07:21;;;;;;;12.52;5.85;;;;;;;;;;5032764;28;20125;-49
2022/03/15 05:12:33;;;;;;;15.48;6.22;;;;;;;;;;5025367;28;20049;-54
2022/03/15 05:14:59;;;;;;;10.77;5.15;;;;;;;;;;5048494;28;20045;-52
2022/03/15 05:17:26;;;;;;;14.50;5.57;;;;;;;;;;5024836;28;20057;-55
2022/03/15 05:19:55;;;;;;;18.05;5.82;;;;;;;;;;5048586;28;20049;-56
2022/03/15 05:22:23;;;;;;;17.08;6.10;;;;;;;;;;5022558;28;20053;-52
2022/03/15 05:24:49;;;;;;;13.88;5.55;;;;;;;;;;5012148;28;20060;-52
2022/03/15 05:27:16;;;;;;;11.13;4.90;;;;;;;;;;5006979;28;20049;-53
2022/03/15 05:29:44;;;;;;;16.05;5.82;;;;;;;;;;5008105;28;20061;-50
2022/03/15 05:32:11;;;;;;;12.35;5.45;;;;;;;;;;5008520;28;20054;-50
2022/03/15 05:34:38;;;;;;;12.18;5.30;;;;;;;;;;5024501;28;20048;-51
2022/03/15 05:37:06;;;;;;;14.05;4.82;;;;;;;;;;5033960;28;20048;-53
2022/03/15 05:39:32;;;;;;;9.65;3.85;;;;;;;;;;5043247;28;20050;-54
2022/03/15 05:41:59;;;;;;;13.30;4.22;;;;;;;;;;5029755;28;20099;-59
2022/03/15 05:44:26;;;;;;;16.15;4.80;;;;;;;;;;5026624;28;20135;-57
2022/03/15 05:46:54;;;;;;;14.52;5.18;;;;;;;;;;5030815;28;20045;-58
2022/03/15 05:49:21;;;;;;;10.77;4.63;;;;;;;;;;5035114;28;20048;-57
2022/03/15 05:51:47;;;;;;;9.88;4.18;;;;;;;;;;5052522;28;20049;-58
2022/03/15 05:54:14;;;;;;;8.25;3.58;;;;;;;;;;5023782;28;20049;-54
2022/03/15 05:56:41;;;;;;;8.95;3.95;;;;;;;;;;5029317;28;20061;-59
2022/03/15 05:59:08;;;;;;;13.32;5.13;;;;;;;;;;5024850;28;20049;-62
2022/03/15 06:01:34;;;;;;;15.13;5.75;;;;;;;;;;5029776;28;20048;-61
2022/03/15 06:04:05;;;;;;;15.60;5.70;;;;;;;;;;5023455;28;20154;-61
2022/03/15 06:06:31;;;;;;;9.57;3.63;;;;;;;;;;5028950;28;20045;-54
2022/03/15 06:08:58;;;;;;;9.50;4.30;;;;;;;;;;5024608;28;20053;-57
2022/03/15 06:11:25;;;;;;;9.30;3.90;;;;;;;;;;5028351;28;20092;-50
2022/03/15 06:13:51;;;;;;;10.23;3.63;;;;;;;;;;5031092;28;20060;-55
2022/03/15 06:16:18;;;;;;;11.77;4.55;;;;;;;;;;5025179;28;20041;-53
2022/03/15 06:18:44;;;;;;;10.48;4.38;;;;;;;;;;5026855;28;20103;-55
2022/03/15 06:21:12;;;;;;;12.80;5.22;;;;;;;;;;5023947;28;20072;-57
2022/03/15 06:23:41;;;;;;;10.73;4.47;;;;;;;;;;5029501;28;20049;-55
2022/03/15 06:26:10;;;;;;;9.70;4.53;;;;;;;;;;5022731;28;20052;-51
2022/03/15 06:28:36;;;;;;;10.20;4.18;;;;;;;;;;5028514;28;20056;-53
2022/03/15 06:31:03;;;;;;;8.35;3.55;;;;;;;;;;5023850;28;20059;-52
2022/03/15 06:33:30;;;;;;;10.27;4.05;;;;;;;;;;5029913;28;20151;-55
2022/03/15 06:35:57;;;;;;;9.20;4.38;;;;;;;;;;5024481;28;20053;-56
2022/03/15 06:38:25;;;;;;;12.77;4.45;;;;;;;;;;5027438;28;20049;-54
2022/03/15 06:40:52;;;;;;;23.77;5.70;;;;;;;;;;5022390;28;20049;-62
2022/03/15 06:43:19;;;;;;;15.65;5.63;;;;;;;;;;5026604;28;20087;-54
2022/03/15 06:45:46;;;;;;;12.13;4.68;;;;;;;;;;5024606;28;20044;-62
2022/03/15 06:48:14;;;;;;;11.05;4.72;;;;;;;;;;5027327;28;20049;-52
2022/03/15 06:50:41;;;;;;;10.20;3.78;;;;;;;;;;5022217;28;20041;-62
2022/03/15 06:53:15;;;;;;;11.60;4.40;;;;;;;;;;5030066;28;20045;-59
2022/03/15 06:55:43;;;;;;;13.00;4.68;;;;;;;;;;5026605;28;20139;-59
2022/03/15 06:58:09;;;;;;;11.45;4.38;;;;;;;;;;5037184;28;20059;-55
2022/03/15 07:00:36;;;;;;;12.38;5.18;;;;;;;;;;5010542;28;20111;-56
2022/03/15 07:03:04;;;;;;;10.70;3.95;;;;;;;;;;5040249;28;20061;-52
2022/03/15 07:05:31;;;;;;;10.55;3.85;;;;;;;;;;5063629;28;20052;-56
2022/03/15 07:07:58;;;;;;;12.37;4.53;;;;;;;;;;5039639;28;20060;-51
2022/03/15 07:10:25;;;;;;;10.60;4.53;;;;;;;;;;5066024;28;20071;-55
2022/03/15 07:12:54;;;;;;;10.88;4.63;;;;;;;;;;5039483;28;20053;-51
2022/03/15 07:15:21;;;;;;;8.98;4.28;;;;;;;;;;5046670;28;20063;-55
2022/03/15 07:17:52;;;;;;;10.25;4.18;;;;;;;;;;5042879;28;20049;-55
2022/03/15 07:20:18;;;;;;;10.95;4.45;;;;;;;;;;5065990;28;20056;-56
2022/03/15 07:22:46;;;;;;;8.75;4.10;;;;;;;;;;5059446;28;20053;-53
2022/03/15 07:25:13;;;;;;;15.10;5.30;;;;;;;;;;5065981;28;20057;-51
2022/03/15 07:27:39;;;;;;;13.82;5.30;;;;;;;;;;5048873;28;20068;-56
2022/03/15 07:30:08;;;;;;;18.52;5.70;;;;;;;;;;5043057;28;20053;-58
2022/03/15 07:32:35;;;;;;;14.60;4.82;;;;;;;;;;5059269;28;20040;-58
2022/03/15 07:35:02;;;;;;;11.27;4.80;;;;;;;;;;5053050;28;20133;-54
2022/03/15 07:37:29;;;;;;;12.18;4.45;;;;;;;;;;5046850;28;20056;-55
2022/03/15 07:39:55;;;;;;;13.82;4.97;;;;;;;;;;5068375;28;20072;-60
2022/03/15 07:42:24;;;;;;;11.32;5.55;;;;;;;;;;5069443;28;20052;-59
2022/03/15 07:44:50;;;;;;;8.70;4.03;;;;;;;;;;5047941;28;20061;-59
2022/03/15 07:47:19;;;;;;;13.15;5.82;;;;;;;;;;5070099;28;20065;-56
2022/03/15 07:49:47;;;;;;;13.88;5.45;;;;;;;;;;5046574;28;20055;-55
2022/03/15 07:52:14;;;;;;;14.75;5.65;;;;;;;;;;5049879;28;20053;-54
2022/03/15 07:54:42;;;;;;;11.77;4.75;;;;;;;;;;5058761;28;20052;-56
2022/03/15 07:57:09;;;;;;;9.85;4.50;;;;;;;;;;5069888;28;20132;-54
2022/03/15 07:59:36;;;;;;;10.02;4.63;;;;;;;;;;5048465;28;20115;-57
2022/03/15 08:02:03;;;;;;;9.27;4.30;;;;;;;;;;5013353;28;20111;-59
2022/03/15 08:04:31;;;;;;;14.07;5.50;;;;;;;;;;5027531;28;20106;-57
2022/03/15 08:06:58;;;;;;;9.25;4.35;;;;;;;;;;5062344;28;20048;-57
2022/03/15 08:09:25;;;;;;;9.07;4.05;;;;;;;;;;5054155;28;20160;-57
2022/03/15 08:11:51;;;;;;;12.63;4.45;;;;;;;;;;5014868;28;20045;-55
2022/03/15 08:14:18;;;;;;;12.32;4.30;;;;;;;;;;5017513;28;20041;-63
2022/03/15 08:16:45;;;;;;;9.00;4.28;;;;;;;;;;5068773;28;20114;-59
2022/03/15 08:19:14;;;;;;;11.32;4.43;;;;;;;;;;5063152;28;20079;-51
2022/03/15 08:21:42;;;;;;;9.90;4.68;;;;;;;;;;5068966;28;20056;-57
2022/03/15 08:24:09;;;;;;;20.80;5.88;;;;;;;;;;5064053;28;20048;-63
2022/03/15 08:26:35;;;;;;;17.30;5.53;;;;;;;;;;5004468;28;20055;-51
2022/03/15 08:29:02;;;;;;;12.10;4.72;;;;;;;;;;5028997;28;20053;-58
2022/03/15 08:31:29;;;;;;;19.20;5.32;;;;;;;;;;5043030;28;20053;-63
2022/03/15 08:33:56;;;;;;;13.50;5.32;;;;;;;;;;5068332;28;20145;-58
2022/03/15 08:36:23;;;;;;;9.15;4.13;;;;;;;;;;5030292;28;20049;-54
2022/03/15 08:38:51;;;;;;;12.98;4.88;;;;;;;;;;5033330;28;20096;-58
2022/03/15 08:41:18;;;;;;;16.98;5.18;;;;;;;;;;5027144;28;20060;-61
2022/03/15 08:43:44;;;;;;;9.70;3.85;;;;;;;;;;5032456;28;20053;-59
2022/03/15 08:46:11;;;;;;;11.02;4.25;;;;;;;;;;5026810;28;20056;-54
2022/03/15 08:48:38;;;;;;;12.18;5.35;;;;;;;;;;5031708;28;20055;-56
2022/03/15 08:51:04;;;;;;;11.02;4.72;;;;;;;;;;5026119;28;20134;-50
2022/03/15 08:53:32;;;;;;;16.27;5.95;;;;;;;;;;5031675;28;20132;-55
2022/03/15 08:56:00;;;;;;;13.00;5.40;;;;;;;;;;5026388;28;20124;-54
2022/03/15 08:58:27;;;;;;;9.60;4.85;;;;;;;;;;5048566;28;20065;-54
2022/03/15 09:00:54;;;;;;;13.10;5.28;;;;;;;;;;5045320;28;20048;-54
2022/03/15 09:03:23;;;;;;;7.75;4.25;;;;;;;;;;5068242;28;20072;-52
2022/03/15 09:05:49;;;;;;;10.52;4.20;;;;;;;;;;5056404;28;20041;-56
2022/03/15 09:08:16;;;;;;;10.60;4.45;;;;;;;;;;5049006;28;20073;-56
2022/03/15 09:10:44;;;;;;;13.07;5.22;;;;;;;;;;5048323;28;20077;-54
2022/03/15 09:13:12;;;;;;;15.10;4.57;;;;;;;;;;5033199;28;20083;-50
2022/03/15 09:15:39;;;;;;;13.88;5.93;;;;;;;;;;5068321;28;20036;-52
2022/03/15 09:18:05;;;;;;;12.55;5.43;;;;;;;;;;5042735;28;20076;-56
2022/03/15 09:20:32;;;;;;;10.82;4.70;;;;;;;;;;5011999;28;20051;-63
2022/03/15 09:23:00;;;;;;;10.43;4.90;;;;;;;;;;5033426;28;20045;-52
2022/03/15 09:25:27;;;;;;;10.30;4.00;;;;;;;;;;5051941;28;20071;-56
2022/03/15 09:27:53;;;;;;;9.77;4.00;;;;;;;;;;5044502;28;20041;-55
2022/03/15 09:30:22;;;;;;;15.00;4.50;;;;;;;;;;5067897;28;20060;-52
2022/03/15 09:32:50;;;;;;;9.68;4.45;;;;;;;;;;5049644;28;20068;-54
2022/03/15 09:35:18;;;;;;;14.40;5.70;;;;;;;;;;5013009;28;20053;-54
2022/03/15 09:37:48;;;;;;;13.98;5.95;;;;;;;;;;5006035;28;20057;-51
2022/03/15 09:40:17;;;;;;;13.32;4.80;;;;;;;;;;5029687;28;20052;-55
2022/03/15 09:42:45;;;;;;;;;;;;;;;;;;5027374;28;20112;-53
2022/03/15 09:45:12;;;;;;;13.50;5.00;;;;;;;;;;5030769;28;19967;-53
2022/03/15 09:47:41;;;;;;;9.88;4.57;;;;;;;;;;5023838;28;20061;-56
2022/03/15 09:50:09;;;;;;;10.85;4.55;;;;;;;;;;5048101;28;20136;-53
2022/03/15 09:52:36;;;;;;;15.38;5.10;;;;;;;;;;5025550;28;20144;-54
2022/03/15 09:55:03;;;;;;;12.02;4.80;;;;;;;;;;5027214;28;20059;-52
2022/03/15 09:57:30;;;;;;;9.65;3.83;;;;;;;;;;5026915;28;20061;-53
2022/03/15 10:00:00;;;;;;;8.98;4.05;;;;;;;;;;5021600;28;20107;-55
2022/03/15 10:02:27;;;;;;;9.75;3.97;;;;;;;;;;5010586;28;20103;-55
2022/03/15 10:04:55;;;;;;;10.23;3.78;;;;;;;;;;5037022;28;20053;-52
2022/03/15 10:07:22;;;;;;;7.72;3.60;;;;;;;;;;5028026;28;20054;-55
2022/03/15 10:09:51;;;;;;;10.95;3.88;;;;;;;;;;5035472;28;20144;-55
2022/03/15 10:12:18;;;;;;;9.52;4.18;;;;;;;;;;5029266;28;20057;-49
2022/03/15 10:14:48;;;;;;;15.23;4.68;;;;;;;;;;5008684;28;20062;-55
2022/03/15 10:17:16;;;;;;;14.23;4.22;;;;;;;;;;5008120;28;20053;-57
2022/03/15 10:19:52;;;;;;;12.50;4.55;;;;;;;;;;5014489;28;20071;-55
2022/03/15 10:22:22;;;;;;;16.35;4.53;;;;;;;;;;5009291;28;20049;-54
2022/03/15 10:24:49;;;;;;;12.43;5.03;;;;;;;;;;5010369;28;20059;-49
2022/03/15 10:27:18;;;;;;;13.73;4.13;;;;;;;;;;5046669;28;20063;-55
2022/03/15 10:29:46;;;;;;;12.75;3.83;;;;;;;;;;5037218;28;20045;-54
2022/03/15 10:32:14;;;;;;;9.60;3.90;;;;;;;;;;5010315;28;20053;-55
2022/03/15 10:34:40;;;;;;;11.88;4.30;;;;;;;;;;5009218;28;20067;-56
2022/03/15 10:37:07;;;;;;;12.40;4.28;;;;;;;;;;5049911;28;20087;-55
2022/03/15 10:39:36;;;;;;;12.45;4.35;;;;;;;;;;5059846;28;20076;-60
2022/03/15 10:42:03;;;;;;;;;;;;;;;;;;5030639;28;20076;-60
2022/03/15 10:44:30;;;;;;;10.18;3.28;;;;;;;;;;5030382;28;19920;-55
2022/03/15 10:46:59;;;;;;;10.40;3.63;;;;;;;;;;5046566;28;20110;-53
2022/03/15 10:49:25;;;;;;;13.52;4.45;;;;;;;;;;5066977;28;20102;-57
2022/03/15 10:51:52;;;;;;;13.35;4.40;;;;;;;;;;5059975;28;20080;-57
2022/03/15 10:54:19;;;;;;;13.95;4.05;;;;;;;;;;5050178;28;20052;-62
2022/03/15 10:56:53;;;;;;;12.38;3.88;;;;;;;;;;5043500;28;20057;-51
2022/03/15 10:59:21;;;;;;;9.80;3.15;;;;;;;;;;5009711;28;20132;-58
2022/03/15 11:01:48;;;;;;;9.98;3.63;;;;;;;;;;5031066;28;20060;-54
2022/03/15 11:04:14;;;;;;;10.07;3.42;;;;;;;;;;5067335;28;20063;-55
2022/03/15 11:06:43;;;;;;;6.60;2.92;;;;;;;;;;5044584;28;20064;-51
2022/03/15 11:09:17;;;;;;;9.05;4.03;;;;;;;;;;5043626;28;20057;-55
2022/03/15 11:11:45;;;;;;;11.68;4.00;;;;;;;;;;5045731;28;20036;-57
2022/03/15 11:14:14;;;;;;;9.75;4.07;;;;;;;;;;5070688;28;20076;-60
2022/03/15 11:16:41;;;;;;;12.50;3.63;;;;;;;;;;5058205;28;20045;-58
2022/03/15 11:19:08;;;;;;;10.53;3.30;;;;;;;;;;5050586;28;20063;-59
2022/03/15 11:21:35;;;;;;;13.73;4.05;;;;;;;;;;5049899;28;20059;-56
2022/03/15 11:24:03;;;;;;;10.82;3.92;;;;;;;;;;5070549;28;20052;-58
2022/03/15 11:26:31;;;;;;;9.40;4.20;;;;;;;;;;5063394;28;20067;-51
2022/03/15 11:28:57;;;;;;;9.23;3.47;;;;;;;;;;5070457;28;20079;-59
2022/03/15 11:31:26;;;;;;;6.70;3.10;;;;;;;;;;5065331;28;20062;-56
2022/03/15 11:33:55;;;;;;;7.82;3.30;;;;;;;;;;5014036;28;20066;-59
2022/03/15 11:36:24;;;;;;;7.95;3.58;;;;;;;;;;5013621;28;20053;-59
2022/03/15 11:38:51;;;;;;;8.77;4.25;;;;;;;;;;5038055;28;20062;-58
2022/03/15 11:41:20;;;;;;;12.60;4.05;;;;;;;;;;5029807;28;20072;-58
2022/03/15 11:44:00;;;;;;;12.77;3.72;;;;;;;;;;5040019;28;20128;-54
2022/03/15 11:46:32;;;;;;;8.65;4.32;;;;;;;;;;5046401;28;20056;-57
2022/03/15 11:49:06;;;;;;;10.02;4.38;;;;;;;;;;5024783;28;20049;-54
2022/03/15 11:51:35;;;;;;;10.75;4.32;;;;;;;;;;5029871;28;20053;-57
2022/03/15 11:54:06;;;;;;;14.07;4.03;;;;;;;;;;5024301;28;20057;-60
2022/03/15 11:56:37;;;;;;;11.68;3.88;;;;;;;;;;5029497;28;20104;-52
2022/03/15 11:59:03;;;;;;;12.95;4.03;;;;;;;;;;5024119;28;20060;-54
2022/03/15 12:01:42;;;;;;;8.73;4.10;;;;;;;;;;5029955;28;20386;-54
2022/03/15 12:04:08;;;;;;;;;;;;;;;;;;5024957;28;20053;-53
2022/03/15 12:06:35;;;;;;;13.98;4.50;;;;;;;;;;5029375;28;19925;-54
2022/03/15 12:09:03;;;;;;;9.90;3.85;;;;;;;;;;5024493;28;20061;-57
2022/03/15 12:11:32;;;;;;;10.18;3.63;;;;;;;;;;5029633;28;20060;-54
2022/03/15 12:14:05;;;;;;;14.35;4.78;;;;;;;;;;5021403;28;20060;-53
2022/03/15 12:16:35;;;;;;;13.15;4.18;;;;;;;;;;5026602;28;20046;-55
2022/03/15 12:19:10;;;;;;;9.98;4.20;;;;;;;;;;5046260;28;20042;-59
2022/03/15 12:21:50;;;;;;;9.32;4.05;;;;;;;;;;5004092;28;20054;-56
2022/03/15 12:24:19;;;;;;;12.45;3.95;;;;;;;;;;5011041;28;20049;-60
2022/03/15 12:26:47;;;;;;;12.48;3.55;;;;;;;;;;5029491;28;20049;-61
2022/03/15 12:29:14;;;;;;;8.95;3.92;;;;;;;;;;5024848;28;20073;-56
2022/03/15 12:31:43;;;;;;;9.55;3.28;;;;;;;;;;5030222;28;20053;-58
2022/03/15 12:34:10;;;;;;;8.95;3.42;;;;;;;;;;5024987;28;20057;-62
2022/03/15 12:36:41;;;;;;;9.52;3.70;;;;;;;;;;5046541;28;20053;-58
2022/03/15 12:39:09;;;;;;;13.98;4.20;;;;;;;;;;5042845;28;20064;-59
2022/03/15 12:41:35;;;;;;;9.57;3.25;;;;;;;;;;5026617;28;20084;-61
2022/03/15 12:44:02;;;;;;;8.25;3.80;;;;;;;;;;5031610;28;20057;-59
2022/03/15 12:46:30;;;;;;;9.23;3.53;;;;;;;;;;5026309;28;20103;-57
2022/03/15 12:49:05;;;;;;;7.90;3.63;;;;;;;;;;5033345;28;20139;-57
2022/03/15 12:51:40;;;;;;;11.20;3.75;;;;;;;;;;5022873;28;20057;-61
2022/03/15 12:54:10;;;;;;;9.30;3.35;;;;;;;;;;4993704;28;20076;-62
2022/03/15 12:56:47;;;;;;;11.38;3.70;;;;;;;;;;5020443;28;20045;-61
2022/03/15 12:59:21;;;;;;;13.93;3.83;;;;;;;;;;5033329;28;20103;-59
2022/03/15 13:01:48;;;;;;;7.90;4.00;;;;;;;;;;5045288;28;20107;-62
2022/03/15 13:04:17;;;;;;;10.13;3.75;;;;;;;;;;5049750;28;20049;-61
2022/03/15 13:06:44;;;;;;;8.07;3.38;;;;;;;;;;5029079;28;20060;-61
2022/03/15 13:09:11;;;;;;;11.13;3.67;;;;;;;;;;5027659;28;20084;-59
2022/03/15 13:11:48;;;;;;;9.73;3.72;;;;;;;;;;5034200;28;20052;-59
2022/03/15 13:14:14;;;;;;;6.88;2.70;;;;;;;;;;5032028;28;20057;-53
2022/03/15 13:16:45;;;;;;;9.88;3.85;;;;;;;;;;5028370;28;20054;-58
2022/03/15 13:19:11;;;;;;;9.40;3.30;;;;;;;;;;5025892;28;20054;-57
2022/03/15 13:21:40;;;;;;;11.23;4.10;;;;;;;;;;5030176;28;20053;-60
2022/03/15 13:24:10;;;;;;;9.77;4.03;;;;;;;;;;5031298;28;20057;-56
2022/03/15 13:26:39;;;;;;;6.57;3.17;;;;;;;;;;5025271;28;20055;-53
2022/03/15 13:29:07;;;;;;;8.25;3.50;;;;;;;;;;5030751;28;20049;-63
2022/03/15 13:31:35;;;;;;;13.63;4.32;;;;;;;;;;5020624;28;20054;-58
2022/03/15 13:34:03;;;;;;;12.73;3.78;;;;;;;;;;5011719;28;20072;-59
2022/03/15 13:36:31;;;;;;;11.10;4.55;;;;;;;;;;5005566;28;20103;-60
2022/03/15 13:39:00;;;;;;;10.98;4.38;;;;;;;;;;5043399;28;20054;-55
2022/03/15 13:41:28;;;;;;;6.68;3.30;;;;;;;;;;5033501;28;20148;-58
2022/03/15 13:43:58;;;;;;;8.67;3.03;;;;;;;;;;5008185;28;20057;-57
2022/03/15 13:46:29;;;;;;;11.45;4.13;;;;;;;;;;5024458;28;20301;-61
2022/03/15 13:48:56;;;;;;;10.80;3.40;;;;;;;;;;5034805;28;20113;-56
2022/03/15 13:51:26;;;;;;;8.15;3.10;;;;;;;;;;5024764;28;20054;-59
2022/03/15 13:53:53;;;;;;;7.72;3.03;;;;;;;;;;5053058;28;20081;-58
2022/03/15 13:56:22;;;;;;;8.65;3.90;;;;;;;;;;5048405;28;20193;-64
2022/03/15 13:58:59;;;;;;;9.68;3.50;;;;;;;;;;5026923;28;20057;-63
2022/03/15 14:01:32;;;;;;;9.13;3.28;;;;;;;;;;5044209;28;20084;-62
2022/03/15 14:04:03;;;;;;;7.15;2.80;;;;;;;;;;5040906;28;20073;-61
2022/03/15 14:06:32;;;;;;;7.00;3.33;;;;;;;;;;5036581;28;20061;-61
2022/03/15 14:09:00;;;;;;;5.65;2.92;;;;;;;;;;5022539;28;20054;-61
2022/03/15 14:11:32;;;;;;;7.53;3.47;;;;;;;;;;5028048;28;20049;-57
2022/03/15 14:14:07;;;;;;;9.77;2.95;;;;;;;;;;5027082;28;20048;-55
2022/03/15 14:16:35;;;;;;;10.75;3.40;;;;;;;;;;5038902;28;20056;-57
2022/03/15 14:19:04;;;;;;;10.50;3.33;;;;;;;;;;5041097;28;20140;-55
2022/03/15 14:21:31;;;;;;;9.70;3.13;;;;;;;;;;5047160;28;20146;-60
2022/03/15 14:23:59;;;;;;;7.93;3.63;;;;;;;;;;5039020;28;20057;-59
2022/03/15 14:26:28;;;;;;;7.70;3.45;;;;;;;;;;5047327;28;20052;-55
2022/03/15 14:28:54;;;;;;;;;;;;;;;;;;5034744;28;20103;-56
2022/03/15 14:31:26;;;;;;;7.05;2.88;;;;;;;;;;5042805;28;19948;-57
2022/03/15 14:34:01;;;;;;;12.05;3.45;;;;;;;;;;5041180;28;20113;-55
2022/03/15 14:36:32;;;;;;;7.30;2.90;;;;;;;;;;5047214;28;20051;-58
2022/03/15 14:38:59;;;;;;;10.98;3.00;;;;;;;;;;5040149;28;20049;-63
2022/03/15 14:41:25;;;;;;;7.70;2.60;;;;;;;;;;5047098;28;20048;-60